Time;durP1;ratioP1;P1;durP2;ratioP2;P2;SDS_P1;SDS_P2;PMS_P1;PMS_P2;Temp;Humidity;BMP_temperature;BMP_pressure;BME280_temperature;BME280_humidity;BME280_pressure;Samples;Min_cycle;Max_cycle;Signal;HPM_P1;HPM_P2
2021/05/30 00:02:59;;;;;;;15.90;11.07;;;9.80;99.90;;;;;;12385240;28;20100;-38
2021/05/30 00:09:01;;;;;;;13.90;10.38;;;9.60;99.90;;;;;;12382129;28;20046;-39
2021/05/30 00:15:06;;;;;;;13.05;9.88;;;9.60;99.90;;;;;;12382508;28;20154;-39
2021/05/30 00:21:08;;;;;;;18.35;10.18;;;9.70;99.90;;;;;;12380890;28;20587;-38
2021/05/30 00:27:10;;;;;;;11.48;9.85;;;9.70;99.90;;;;;;12376283;28;20103;-39
2021/05/30 00:33:14;;;;;;;13.80;9.27;;;9.70;99.90;;;;;;12378182;28;20084;-39
2021/05/30 00:39:17;;;;;;;14.82;9.20;;;9.70;99.90;;;;;;12382317;28;20058;-39
2021/05/30 00:45:19;;;;;;;14.07;9.25;;;9.70;99.90;;;;;;12378572;28;20049;-39
2021/05/30 00:51:21;;;;;;;15.13;10.52;;;9.60;99.90;;;;;;12381175;28;20104;-39
2021/05/30 00:57:23;;;;;;;14.10;10.60;;;9.50;99.90;;;;;;12384101;28;20446;-39
2021/05/30 01:03:25;;;;;;;17.08;11.68;;;9.40;99.90;;;;;;12386627;28;20078;-39
2021/05/30 01:09:27;;;;;;;14.50;10.48;;;9.30;99.90;;;;;;12394145;28;20072;-39
2021/05/30 01:15:31;;;;;;;15.25;11.35;;;9.40;99.90;;;;;;12394776;28;20054;-38
2021/05/30 01:21:34;;;;;;;16.45;11.57;;;9.40;99.90;;;;;;12393001;28;20042;-39
2021/05/30 01:27:35;;;;;;;18.50;12.65;;;9.30;99.90;;;;;;12393663;28;20055;-40
2021/05/30 01:33:38;;;;;;;17.48;11.82;;;8.90;99.90;;;;;;12398516;28;20449;-39
2021/05/30 01:39:39;;;;;;;18.65;12.57;;;8.90;99.90;;;;;;12399362;28;20053;-39
2021/05/30 01:45:41;;;;;;;16.60;13.32;;;9.00;99.90;;;;;;12393666;28;20050;-39
2021/05/30 01:51:43;;;;;;;20.58;13.50;;;9.10;99.90;;;;;;12398709;28;20160;-40
2021/05/30 01:57:48;;;;;;;19.33;12.38;;;9.10;99.90;;;;;;12393368;28;20050;-39
2021/05/30 02:03:50;;;;;;;;;;;9.10;99.90;;;;;;12395580;28;20053;-39
2021/05/30 02:09:53;;;;;;;15.98;11.73;;;9.30;99.90;;;;;;12394424;28;19933;-39
2021/05/30 02:15:54;;;;;;;18.38;12.95;;;9.30;99.90;;;;;;12393430;28;20453;-39
2021/05/30 02:21:57;;;;;;;16.98;11.45;;;9.10;99.90;;;;;;12384901;28;21086;-39
2021/05/30 02:27:59;;;;;;;18.00;11.93;;;9.20;99.90;;;;;;12395055;28;20054;-39
2021/05/30 02:34:01;;;;;;;18.40;11.13;;;9.10;99.90;;;;;;12391913;28;20042;-40
2021/05/30 02:40:05;;;;;;;17.60;11.60;;;9.20;99.90;;;;;;12393538;28;20054;-39
2021/05/30 02:46:07;;;;;;;13.97;9.77;;;9.00;99.90;;;;;;12391526;28;20143;-38
2021/05/30 02:52:09;;;;;;;16.73;11.27;;;8.90;99.90;;;;;;12390122;28;20096;-38
2021/05/30 02:58:11;;;;;;;14.90;10.52;;;8.70;99.90;;;;;;12394259;28;20049;-39
2021/05/30 03:04:12;;;;;;;17.33;11.15;;;8.50;99.90;;;;;;12390821;28;20487;-39
2021/05/30 03:10:14;;;;;;;16.08;11.50;;;8.50;99.90;;;;;;12389443;28;20042;-39
2021/05/30 03:16:16;;;;;;;13.48;10.13;;;8.20;99.90;;;;;;12392109;28;20528;-39
2021/05/30 03:22:20;;;;;;;16.23;10.95;;;8.10;99.90;;;;;;12393922;28;20073;-39
2021/05/30 03:28:22;;;;;;;17.10;11.40;;;8.20;99.90;;;;;;12390896;28;20054;-38
2021/05/30 03:34:24;;;;;;;17.55;11.60;;;8.10;99.90;;;;;;12386388;28;20061;-40
2021/05/30 03:40:32;;;;;;;17.00;12.63;;;8.30;99.90;;;;;;12389272;28;20906;-39
2021/05/30 03:46:35;;;;;;;20.75;12.70;;;8.20;99.90;;;;;;12390052;28;20771;-39
2021/05/30 03:52:38;;;;;;;16.30;11.23;;;8.10;99.90;;;;;;12388843;28;20096;-39
2021/05/30 03:58:40;;;;;;;18.75;11.18;;;8.20;99.90;;;;;;12390288;28;20057;-39
2021/05/30 04:04:42;;;;;;;17.25;12.40;;;8.40;99.90;;;;;;12388625;28;20123;-39
2021/05/30 04:10:44;;;;;;;18.48;12.95;;;8.30;99.90;;;;;;12387898;28;20042;-43
2021/05/30 04:16:46;;;;;;;17.42;11.80;;;8.40;99.90;;;;;;12389094;28;20062;-39
2021/05/30 04:22:49;;;;;;;16.08;12.35;;;8.50;99.90;;;;;;12389668;28;20150;-38
2021/05/30 04:28:51;;;;;;;21.27;13.82;;;8.70;99.90;;;;;;12385435;28;20494;-39
2021/05/30 04:34:53;;;;;;;21.48;14.15;;;8.80;99.90;;;;;;12384438;28;20062;-38
2021/05/30 04:40:55;;;;;;;20.98;14.63;;;8.90;99.90;;;;;;12394630;28;20498;-39
2021/05/30 04:46:57;;;;;;;22.02;14.45;;;9.00;99.90;;;;;;12396005;28;20104;-39
2021/05/30 04:52:59;;;;;;;20.67;14.10;;;9.10;99.90;;;;;;12398550;28;20496;-39
2021/05/30 04:59:01;;;;;;;21.05;13.45;;;9.50;99.90;;;;;;12410627;28;20054;-39
2021/05/30 05:05:04;;;;;;;21.33;15.80;;;9.50;99.90;;;;;;12394459;28;20390;-39
2021/05/30 05:11:08;;;;;;;21.08;15.60;;;9.70;99.90;;;;;;12393433;28;20813;-38
2021/05/30 05:17:10;;;;;;;22.00;15.95;;;9.70;99.90;;;;;;12394287;28;20058;-39
2021/05/30 05:23:14;;;;;;;23.85;14.85;;;9.80;99.90;;;;;;12390478;28;20056;-39
2021/05/30 05:29:18;;;;;;;24.63;15.52;;;9.70;99.90;;;;;;12395899;28;20418;-39
2021/05/30 05:35:20;;;;;;;23.27;15.85;;;9.80;99.90;;;;;;12393491;28;20168;-39
2021/05/30 05:41:22;;;;;;;21.40;15.73;;;10.10;99.90;;;;;;12391910;28;20145;-39
2021/05/30 05:47:24;;;;;;;22.15;15.52;;;10.60;99.90;;;;;;12389946;28;20140;-39
2021/05/30 05:53:26;;;;;;;17.98;12.32;;;10.80;99.90;;;;;;12388044;28;20073;-39
2021/05/30 05:59:28;;;;;;;20.42;12.70;;;10.70;99.90;;;;;;12381172;28;20050;-40
2021/05/30 06:05:30;;;;;;;17.83;12.57;;;10.80;99.90;;;;;;12389379;28;20498;-39
2021/05/30 06:11:31;;;;;;;19.67;13.73;;;10.90;99.90;;;;;;12391305;28;20425;-40
2021/05/30 06:17:34;;;;;;;18.23;13.20;;;10.70;99.90;;;;;;12386353;28;20058;-39
2021/05/30 06:23:37;;;;;;;17.20;13.43;;;11.10;99.90;;;;;;12387540;28;20054;-39
2021/05/30 06:29:38;;;;;;;21.33;13.77;;;11.40;99.90;;;;;;12387370;28;20153;-39
2021/05/30 06:35:42;;;;;;;18.05;12.77;;;11.60;99.90;;;;;;12391081;28;20463;-39
2021/05/30 06:41:45;;;;;;;21.40;13.57;;;11.70;99.90;;;;;;12385071;28;20391;-39
2021/05/30 06:47:47;;;;;;;18.63;13.45;;;11.70;99.90;;;;;;12383952;28;20041;-39
2021/05/30 06:53:50;;;;;;;21.30;12.77;;;11.70;99.90;;;;;;12383767;28;20054;-39
2021/05/30 06:59:52;;;;;;;20.93;13.10;;;11.90;99.90;;;;;;12386827;28;20628;-39
2021/05/30 07:05:54;;;;;;;16.00;10.90;;;12.00;99.90;;;;;;12394204;28;20482;-39
2021/05/30 07:11:56;;;;;;;15.35;11.68;;;12.10;99.90;;;;;;12384043;28;20042;-41
2021/05/30 07:17:58;;;;;;;18.30;10.98;;;12.10;99.90;;;;;;12395480;28;20058;-39
2021/05/30 07:24:00;;;;;;;16.67;9.60;;;12.20;99.90;;;;;;12389336;28;20057;-39
2021/05/30 07:30:03;;;;;;;14.55;10.38;;;12.40;99.90;;;;;;12389392;28;20097;-39
2021/05/30 07:36:06;;;;;;;13.73;9.53;;;12.50;99.90;;;;;;12386050;28;20043;-39
2021/05/30 07:42:09;;;;;;;13.35;9.00;;;12.70;99.90;;;;;;12385220;28;20054;-39
2021/05/30 07:48:11;;;;;;;14.30;9.15;;;12.80;99.90;;;;;;12385080;28;20434;-39
2021/05/30 07:54:12;;;;;;;13.57;8.45;;;13.00;99.90;;;;;;12383759;28;20131;-41
2021/05/30 08:00:17;;;;;;;14.82;8.73;;;13.20;99.90;;;;;;12377635;28;20054;-38
2021/05/30 08:06:19;;;;;;;10.23;7.47;;;13.30;99.90;;;;;;12388747;28;20054;-39
2021/05/30 08:12:21;;;;;;;11.45;6.95;;;13.40;99.90;;;;;;12384717;28;20561;-39
2021/05/30 08:18:23;;;;;;;11.20;7.20;;;13.70;99.90;;;;;;12387034;28;20050;-39
2021/05/30 08:24:24;;;;;;;12.60;7.78;;;13.70;99.90;;;;;;12388415;28;20054;-38
2021/05/30 08:30:27;;;;;;;10.88;6.70;;;14.00;99.90;;;;;;12387977;28;20050;-39
2021/05/30 08:36:29;;;;;;;7.93;5.47;;;14.10;99.90;;;;;;12382995;28;20054;-39
2021/05/30 08:42:31;;;;;;;10.73;7.03;;;14.30;99.90;;;;;;12380878;28;20494;-40
2021/05/30 08:48:33;;;;;;;11.10;5.95;;;14.40;99.90;;;;;;12382663;28;20355;-39
2021/05/30 08:54:35;;;;;;;10.60;7.10;;;14.60;99.90;;;;;;12383969;28;20128;-39
2021/05/30 09:00:37;;;;;;;13.85;7.47;;;14.80;99.90;;;;;;12387443;28;20057;-40
2021/05/30 09:06:43;;;;;;;8.85;6.25;;;15.00;99.90;;;;;;12384830;28;20080;-40
2021/05/30 09:12:45;;;;;;;7.90;5.75;;;15.20;99.90;;;;;;12378874;28;20588;-39
2021/05/30 09:18:48;;;;;;;7.55;4.03;;;15.60;99.90;;;;;;12380561;28;20057;-39
2021/05/30 09:24:50;;;;;;;8.48;5.22;;;15.80;99.90;;;;;;12385267;28;20108;-39
2021/05/30 09:31:06;;;;;;;8.93;5.20;;;15.90;99.90;;;;;;12395713;28;20975;-38
2021/05/30 09:37:09;;;;;;;7.10;4.78;;;16.40;99.90;;;;;;12394002;28;20054;-37
2021/05/30 09:43:11;;;;;;;8.65;4.90;;;16.70;99.90;;;;;;12389888;28;20112;-38
2021/05/30 09:49:13;;;;;;;8.82;4.70;;;17.00;99.90;;;;;;12390157;28;20460;-38
2021/05/30 09:55:19;;;;;;;7.32;4.35;;;17.10;99.90;;;;;;12388793;28;20125;-39
2021/05/30 10:01:21;;;;;;;6.43;3.80;;;17.40;99.90;;;;;;12387709;28;20061;-39
2021/05/30 10:07:24;;;;;;;3.50;2.50;;;17.60;99.90;;;;;;12386801;28;20132;-40
2021/05/30 10:13:27;;;;;;;4.70;3.33;;;17.90;99.90;;;;;;12382491;28;20065;-39
2021/05/30 10:19:40;;;;;;;7.87;4.90;;;17.80;99.90;;;;;;12389392;28;20901;-41
2021/05/30 10:25:42;;;;;;;9.63;4.60;;;18.20;99.90;;;;;;12374781;28;20043;-40
2021/05/30 10:31:46;;;;;;;6.47;3.15;;;18.60;99.90;;;;;;12382463;28;20049;-38
2021/05/30 10:37:57;;;;;;;4.13;2.65;;;18.60;99.90;;;;;;12386183;28;20061;-38
2021/05/30 10:43:59;;;;;;;5.22;2.40;;;19.20;99.90;;;;;;12381791;28;20454;-37
2021/05/30 10:50:06;;;;;;;5.32;2.50;;;19.30;99.90;;;;;;12385565;28;20043;-37
2021/05/30 10:56:24;;;;;;;4.18;2.05;;;19.70;99.90;;;;;;12382911;28;20097;-38
2021/05/30 11:02:26;;;;;;;6.88;1.95;;;19.80;99.90;;;;;;12383164;28;20086;-38
2021/05/30 11:08:31;;;;;;;4.88;1.90;;;20.10;99.90;;;;;;12382036;28;21471;-37
2021/05/30 11:14:33;;;;;;;3.80;1.80;;;20.30;99.90;;;;;;12380526;28;20058;-39
2021/05/30 11:20:44;;;;;;;4.78;2.13;;;20.30;99.90;;;;;;12384839;28;20046;-37
2021/05/30 11:26:57;;;;;;;6.03;1.88;;;20.30;99.90;;;;;;12379338;28;20044;-38
2021/05/30 11:33:00;;;;;;;4.40;1.60;;;20.20;99.90;;;;;;12385292;28;20104;-41
2021/05/30 11:39:12;;;;;;;3.07;1.70;;;20.60;99.90;;;;;;12385848;28;20065;-37
2021/05/30 11:45:38;;;;;;;3.75;1.70;;;21.10;99.90;;;;;;12381863;28;20293;-37
2021/05/30 11:51:43;;;;;;;5.63;2.05;;;21.30;99.90;;;;;;12383363;28;20100;-38
2021/05/30 11:57:45;;;;;;;5.15;1.90;;;21.40;99.90;;;;;;12387732;28;20069;-37
2021/05/30 12:03:48;;;;;;;5.20;2.45;;;21.20;99.90;;;;;;12381482;28;20053;-37
2021/05/30 12:09:55;;;;;;;3.42;2.20;;;21.60;99.90;;;;;;12383288;28;20056;-37
2021/05/30 12:15:59;;;;;;;2.95;1.88;;;21.40;99.90;;;;;;12378921;28;20050;-37
2021/05/30 12:22:01;;;;;;;4.07;2.03;;;21.20;99.90;;;;;;12380940;28;20077;-37
2021/05/30 12:28:03;;;;;;;4.32;2.30;;;22.20;99.90;;;;;;12382046;28;20050;-37
2021/05/30 12:34:07;;;;;;;4.53;2.20;;;22.40;99.90;;;;;;12378061;28;20091;-39
2021/05/30 12:40:12;;;;;;;3.33;2.00;;;22.30;99.90;;;;;;12382806;28;20058;-41
2021/05/30 12:46:14;;;;;;;4.07;1.98;;;22.50;99.90;;;;;;12384059;28;20080;-37
2021/05/30 12:52:16;;;;;;;4.10;2.20;;;22.70;99.90;;;;;;12384569;28;20050;-37
2021/05/30 12:58:20;;;;;;;3.58;2.00;;;22.50;99.90;;;;;;12381361;28;20077;-37
2021/05/30 13:04:41;;;;;;;3.38;2.13;;;21.70;99.90;;;;;;12394043;28;20465;-38
2021/05/30 13:10:57;;;;;;;3.13;2.13;;;21.70;99.90;;;;;;12386289;28;20072;-37
2021/05/30 13:17:18;;;;;;;4.78;2.30;;;22.30;99.90;;;;;;12387890;28;20057;-38
2021/05/30 13:23:27;;;;;;;5.53;2.45;;;21.80;99.90;;;;;;12387954;28;20054;-37
2021/05/30 13:29:28;;;;;;;7.28;2.30;;;22.00;99.90;;;;;;12390376;28;20081;-38
2021/05/30 13:35:30;;;;;;;2.22;1.40;;;22.40;99.90;;;;;;12389684;28;20050;-37
2021/05/30 13:41:32;;;;;;;4.25;1.90;;;21.80;99.90;;;;;;12391148;28;20525;-37
2021/05/30 13:47:34;;;;;;;3.03;1.55;;;21.40;99.90;;;;;;12382909;28;20278;-37
2021/05/30 13:53:38;;;;;;;3.63;1.90;;;21.70;99.90;;;;;;12382222;28;20801;-37
2021/05/30 13:59:40;;;;;;;4.45;2.08;;;22.20;99.90;;;;;;12385059;28;20465;-37
2021/05/30 14:05:43;;;;;;;5.57;2.33;;;22.60;99.90;;;;;;12386963;28;20050;-38
2021/05/30 14:11:45;;;;;;;4.82;2.05;;;22.10;99.90;;;;;;12385365;28;20076;-37
2021/05/30 14:17:47;;;;;;;6.43;2.28;;;22.10;99.90;;;;;;12389871;28;20099;-37
2021/05/30 14:23:49;;;;;;;4.60;2.65;;;22.20;99.90;;;;;;12388170;28;20054;-38
2021/05/30 14:29:51;;;;;;;5.10;2.30;;;22.80;99.90;;;;;;12387907;28;20141;-37
2021/05/30 14:35:53;;;;;;;3.85;2.28;;;22.80;99.90;;;;;;12389391;28;20447;-39
2021/05/30 14:41:55;;;;;;;4.45;2.10;;;23.00;99.90;;;;;;12383736;28;20050;-38
2021/05/30 14:47:56;;;;;;;7.65;2.38;;;22.70;99.90;;;;;;12385631;28;20103;-39
2021/05/30 14:53:59;;;;;;;4.32;2.15;;;23.00;99.90;;;;;;12414308;28;20065;-37
2021/05/30 15:00:04;;;;;;;4.35;2.20;;;23.20;99.90;;;;;;12436828;28;20053;-38
2021/05/30 15:06:06;;;;;;;5.53;2.20;;;22.70;99.90;;;;;;12423393;28;20057;-38
2021/05/30 15:12:08;;;;;;;3.97;2.22;;;22.50;99.90;;;;;;12428678;28;20060;-37
2021/05/30 15:18:10;;;;;;;4.30;2.10;;;23.10;99.90;;;;;;12437290;28;20052;-39
2021/05/30 15:24:12;;;;;;;3.20;1.73;;;22.80;99.90;;;;;;12438634;28;20632;-37
2021/05/30 15:30:15;;;;;;;5.15;2.40;;;22.40;99.90;;;;;;12442064;28;20049;-37
2021/05/30 15:36:17;;;;;;;5.70;2.03;;;22.60;99.90;;;;;;12437866;28;20439;-37
2021/05/30 15:42:19;;;;;;;3.92;1.83;;;22.90;99.90;;;;;;12413539;28;21006;-38
2021/05/30 15:48:21;;;;;;;5.80;2.00;;;22.90;99.90;;;;;;12440643;28;20060;-38
2021/05/30 15:54:23;;;;;;;7.40;2.22;;;22.80;99.90;;;;;;12441311;28;20077;-38
2021/05/30 16:00:25;;;;;;;4.90;2.50;;;23.20;99.90;;;;;;12442034;28;20080;-37
2021/05/30 16:06:27;;;;;;;4.75;2.13;;;22.50;99.90;;;;;;12432782;28;20053;-38
2021/05/30 16:12:30;;;;;;;7.43;2.63;;;22.50;99.90;;;;;;12439498;28;20053;-38
2021/05/30 16:18:33;;;;;;;4.57;2.15;;;22.70;99.90;;;;;;12439242;28;20057;-37
2021/05/30 16:24:35;;;;;;;3.30;2.08;;;23.40;99.90;;;;;;12432377;28;20068;-38
2021/05/30 16:30:37;;;;;;;5.38;2.30;;;23.40;99.90;;;;;;12433689;28;20567;-37
2021/05/30 16:36:39;;;;;;;4.95;1.98;;;23.60;99.90;;;;;;12438709;28;20096;-38
2021/05/30 16:42:40;;;;;;;4.50;1.85;;;23.40;99.90;;;;;;12428949;28;20049;-38
2021/05/30 16:48:43;;;;;;;3.07;1.60;;;24.00;99.90;;;;;;12433026;28;20049;-38
2021/05/30 16:54:45;;;;;;;3.25;1.60;;;24.20;99.90;;;;;;12425786;28;20080;-37
2021/05/30 17:00:48;;;;;;;3.30;1.50;;;24.30;99.90;;;;;;12428250;28;20057;-39
2021/05/30 17:06:50;;;;;;;5.17;1.50;;;23.90;99.90;;;;;;12431443;28;20138;-38
2021/05/30 17:12:52;;;;;;;3.22;1.38;;;24.20;99.90;;;;;;12426083;28;20049;-38
2021/05/30 17:18:54;;;;;;;2.97;1.30;;;24.00;99.90;;;;;;12426710;28;20054;-38
2021/05/30 17:24:57;;;;;;;4.78;1.40;;;24.40;99.90;;;;;;12433096;28;20046;-38
2021/05/30 17:31:00;;;;;;;2.50;1.40;;;24.20;99.90;;;;;;12414426;28;20058;-38
2021/05/30 17:37:02;;;;;;;2.90;1.33;;;25.30;99.90;;;;;;12414928;28;20056;-38
2021/05/30 17:43:04;;;;;;;3.00;1.60;;;25.20;99.90;;;;;;12429786;28;20096;-37
2021/05/30 17:49:06;;;;;;;2.92;1.40;;;25.00;99.90;;;;;;12444157;28;20107;-38
2021/05/30 17:55:09;;;;;;;2.75;1.40;;;24.50;99.90;;;;;;12416833;28;20140;-38
2021/05/30 18:01:11;;;;;;;2.50;1.20;;;24.20;99.90;;;;;;12436626;28;20053;-38
2021/05/30 18:07:19;;;;;;;4.05;1.77;;;23.90;99.90;;;;;;12435159;28;20054;-39
2021/05/30 18:13:24;;;;;;;5.25;2.15;;;23.40;99.90;;;;;;12437775;28;20054;-40
2021/05/30 18:19:26;;;;;;;3.53;1.85;;;22.20;99.90;;;;;;12435390;28;20103;-38
2021/05/30 18:25:31;;;;;;;3.67;1.60;;;21.20;99.90;;;;;;12429428;28;20094;-38
2021/05/30 18:31:32;;;;;;;4.40;2.13;;;20.50;99.90;;;;;;12437439;28;20098;-38
2021/05/30 18:37:34;;;;;;;4.00;2.03;;;20.10;99.90;;;;;;12439824;28;20052;-37
2021/05/30 18:43:36;;;;;;;3.65;2.15;;;19.80;99.90;;;;;;12437295;28;20056;-37
2021/05/30 18:49:38;;;;;;;7.05;2.25;;;19.60;99.90;;;;;;12425921;28;20042;-38
2021/05/30 18:55:40;;;;;;;5.88;2.30;;;19.60;99.90;;;;;;12428193;28;20111;-37
2021/05/30 19:01:43;;;;;;;7.40;2.17;;;19.30;99.90;;;;;;12434224;28;20140;-38
2021/05/30 19:07:45;;;;;;;4.88;2.20;;;19.10;99.90;;;;;;12430003;28;20481;-39
2021/05/30 19:13:49;;;;;;;5.72;2.35;;;;;;;;;;12429666;28;20049;-39
2021/05/30 19:19:51;;;;;;;6.30;2.90;;;18.60;99.90;;;;;;12434771;28;20053;-37
2021/05/30 19:25:54;;;;;;;4.65;2.35;;;18.30;99.90;;;;;;12433122;28;20054;-37
2021/05/30 19:31:56;;;;;;;6.45;2.63;;;18.00;99.90;;;;;;12431359;28;20057;-37
2021/05/30 19:37:58;;;;;;;8.07;2.95;;;17.80;99.90;;;;;;12437726;28;20454;-37
2021/05/30 19:44:01;;;;;;;5.18;2.53;;;17.60;99.90;;;;;;12433179;28;20045;-37
2021/05/30 19:50:06;;;;;;;4.65;2.58;;;17.50;99.90;;;;;;12435083;28;20160;-37
2021/05/30 19:56:09;;;;;;;5.10;2.75;;;17.40;99.90;;;;;;12430683;28;20107;-38
2021/05/30 20:02:11;;;;;;;5.03;2.90;;;17.20;99.90;;;;;;12432259;28;20042;-37
2021/05/30 20:08:12;;;;;;;6.97;2.63;;;17.00;99.90;;;;;;12439575;28;20732;-37
2021/05/30 20:14:14;;;;;;;10.27;3.38;;;16.70;99.90;;;;;;12434633;28;20103;-36
2021/05/30 20:20:17;;;;;;;8.00;2.90;;;16.70;99.90;;;;;;12436536;28;20045;-39
2021/05/30 20:26:29;;;;;;;6.43;3.22;;;16.40;99.90;;;;;;12432151;28;20482;-37
2021/05/30 20:32:31;;;;;;;8.27;3.17;;;16.20;99.90;;;;;;12435125;28;20152;-37
2021/05/30 20:38:33;;;;;;;13.77;2.88;;;16.10;99.90;;;;;;12431649;28;20050;-37
2021/05/30 20:44:35;;;;;;;7.05;2.67;;;16.20;99.90;;;;;;12435332;28;20444;-37
2021/05/30 20:50:37;;;;;;;7.32;2.85;;;16.20;99.90;;;;;;12432114;28;20073;-37
2021/05/30 20:56:39;;;;;;;7.72;2.70;;;16.10;99.90;;;;;;12435197;28;20057;-37
2021/05/30 21:02:41;;;;;;;8.63;3.38;;;16.00;99.90;;;;;;12427929;28;20053;-37
2021/05/30 21:08:43;;;;;;;8.63;3.20;;;15.90;99.90;;;;;;12433805;28;20038;-38
2021/05/30 21:14:46;;;;;;;7.63;3.45;;;15.90;99.90;;;;;;12435035;28;20037;-38
2021/05/30 21:20:47;;;;;;;6.25;3.33;;;15.80;99.90;;;;;;12434466;28;20054;-37
2021/05/30 21:26:49;;;;;;;6.15;3.10;;;15.50;99.90;;;;;;12440515;28;20099;-39
2021/05/30 21:32:51;;;;;;;6.97;3.20;;;15.40;99.90;;;;;;12439197;28;20054;-37
2021/05/30 21:38:53;;;;;;;9.73;3.58;;;15.30;99.90;;;;;;12443397;28;20144;-37
2021/05/30 21:44:59;;;;;;;5.75;3.17;;;15.40;99.90;;;;;;12441546;28;20126;-38
2021/05/30 21:51:00;;;;;;;9.13;3.35;;;15.30;99.90;;;;;;12442623;28;20045;-37
2021/05/30 21:57:05;;;;;;;8.68;3.50;;;15.20;99.90;;;;;;12440582;28;20102;-38
2021/05/30 22:03:11;;;;;;;10.38;3.50;;;15.30;99.90;;;;;;12435044;28;20045;-37
2021/05/30 22:09:13;;;;;;;8.32;3.28;;;15.20;99.90;;;;;;12436761;28;20054;-37
2021/05/30 22:15:23;;;;;;;11.23;3.63;;;15.10;99.90;;;;;;12437612;28;20061;-37
2021/05/30 22:21:25;;;;;;;6.85;3.83;;;14.90;99.90;;;;;;12435959;28;20691;-38
2021/05/30 22:27:27;;;;;;;9.90;4.07;;;14.80;99.90;;;;;;12441354;28;20056;-39
2021/05/30 22:33:28;;;;;;;11.02;4.82;;;14.80;99.90;;;;;;12438236;28;20045;-38
2021/05/30 22:39:32;;;;;;;6.68;4.25;;;14.70;99.90;;;;;;12432986;28;20140;-38
2021/05/30 22:45:34;;;;;;;8.87;4.43;;;14.50;99.90;;;;;;12433695;28;20053;-37
2021/05/30 22:51:36;;;;;;;8.45;4.35;;;14.40;99.90;;;;;;12438071;28;21004;-37
2021/05/30 22:57:40;;;;;;;9.57;4.70;;;14.40;99.90;;;;;;12435036;28;20058;-38
2021/05/30 23:03:42;;;;;;;12.15;5.18;;;14.00;99.90;;;;;;12436962;28;20538;-37
2021/05/30 23:09:45;;;;;;;13.73;5.32;;;13.60;99.90;;;;;;12436007;28;20117;-37
2021/05/30 23:15:47;;;;;;;10.30;5.57;;;13.60;99.90;;;;;;12435491;28;20127;-37
2021/05/30 23:21:49;;;;;;;12.18;6.57;;;13.60;99.90;;;;;;12440900;28;20090;-37
2021/05/30 23:27:51;;;;;;;14.00;7.07;;;13.70;99.90;;;;;;12437673;28;20050;-37
2021/05/30 23:33:53;;;;;;;13.40;6.88;;;13.60;99.90;;;;;;12439132;28;20050;-37
2021/05/30 23:39:55;;;;;;;11.93;6.55;;;13.70;99.90;;;;;;12437501;28;20054;-37
2021/05/30 23:45:57;;;;;;;11.52;6.28;;;13.70;99.90;;;;;;12430953;28;20634;-37
2021/05/30 23:51:59;;;;;;;12.65;7.05;;;13.80;99.90;;;;;;12436125;28;20048;-40
2021/05/30 23:58:00;;;;;;;11.10;6.93;;;13.80;99.90;;;;;;12431889;28;20051;-37
